createdAt,value
2023-07-17T00:01:12.674Z,24.29
2023-07-17T00:06:16.318Z,24.28
2023-07-17T00:11:20.404Z,24.35
2023-07-17T00:16:23.914Z,24.35
2023-07-17T00:21:26.429Z,24.36
2023-07-17T00:26:31.671Z,24.32
2023-07-17T00:31:34.794Z,24.30
2023-07-17T00:36:37.341Z,24.33
2023-07-17T00:41:40.486Z,24.36
2023-07-17T00:46:42.983Z,24.39
2023-07-17T00:51:45.929Z,24.37
2023-07-17T00:56:49.061Z,24.34
2023-07-17T01:01:53.370Z,24.30
2023-07-17T01:06:56.046Z,24.22
2023-07-17T01:11:58.673Z,24.20
2023-07-17T01:17:02.408Z,24.14
2023-07-17T01:22:21.756Z,24.17
2023-07-17T01:27:24.561Z,24.15
2023-07-17T01:32:27.775Z,24.10
2023-07-17T01:37:30.494Z,24.11
2023-07-17T01:42:33.127Z,24.09
2023-07-17T01:47:35.931Z,24.09
2023-07-17T01:52:38.689Z,24.09
2023-07-17T01:57:41.812Z,24.02
2023-07-17T02:02:45.312Z,23.92
2023-07-17T02:07:48.545Z,23.84
2023-07-17T02:12:51.126Z,23.79
2023-07-17T02:17:53.686Z,23.74
2023-07-17T02:22:56.287Z,23.69
2023-07-17T02:27:58.906Z,23.70
2023-07-17T02:33:02.260Z,23.69
2023-07-17T02:38:04.921Z,23.66
2023-07-17T02:43:09.337Z,23.56
2023-07-17T02:48:12.549Z,23.56
2023-07-17T02:53:15.145Z,23.53
2023-07-17T02:58:18.822Z,23.51
2023-07-17T03:03:21.554Z,23.54
2023-07-17T03:08:24.716Z,23.53
2023-07-17T03:13:28.114Z,23.56
2023-07-17T03:18:30.707Z,23.63
2023-07-17T03:23:34.147Z,23.69
2023-07-17T03:28:36.814Z,23.83
2023-07-17T03:33:39.987Z,23.90
2023-07-17T03:38:43.349Z,24.00
2023-07-17T03:43:46.137Z,24.10
2023-07-17T03:48:49.661Z,24.13
2023-07-17T03:53:52.616Z,24.27
2023-07-17T03:58:57.641Z,24.30
2023-07-17T04:04:00.917Z,24.37
2023-07-17T04:09:04.738Z,24.39
2023-07-17T04:14:07.469Z,24.40
2023-07-17T04:19:10.784Z,24.38
2023-07-17T04:24:13.542Z,24.41
2023-07-17T04:29:18.123Z,24.47
2023-07-17T04:34:26.700Z,24.54
2023-07-17T04:39:32.636Z,24.62
2023-07-17T04:44:39.071Z,24.73
2023-07-17T04:49:45.792Z,24.87
2023-07-17T04:54:48.965Z,24.94
2023-07-17T04:59:55.418Z,25.10
2023-07-17T05:04:59.115Z,25.18
2023-07-17T05:10:02.683Z,25.29
2023-07-17T05:15:06.352Z,25.54
2023-07-17T05:20:11.262Z,25.80
2023-07-17T05:25:14.276Z,25.97
2023-07-17T05:30:17.737Z,26.23
2023-07-17T05:35:20.740Z,26.42
2023-07-17T05:40:32.381Z,26.83
2023-07-17T05:45:52.230Z,27.20
2023-07-17T05:51:12.458Z,27.62
2023-07-17T05:56:31.908Z,27.96
2023-07-17T06:01:39.119Z,28.22
2023-07-17T06:06:42.284Z,28.42
2023-07-17T06:11:45.050Z,28.79
2023-07-17T06:16:47.801Z,29.19
2023-07-17T06:21:51.196Z,29.60
2023-07-17T06:26:57.000Z,29.91
2023-07-17T06:32:00.235Z,30.25
2023-07-17T06:37:05.472Z,30.56
2023-07-17T06:42:11.681Z,30.92
2023-07-17T06:47:25.581Z,31.25
2023-07-17T06:52:39.942Z,31.56
2023-07-17T06:57:42.647Z,31.90
2023-07-17T07:02:45.861Z,32.13
2023-07-17T07:07:48.878Z,32.13
2023-07-17T07:12:52.170Z,32.36
2023-07-17T07:17:54.982Z,32.73
2023-07-17T07:22:58.576Z,32.91
2023-07-17T07:28:02.808Z,32.93
2023-07-17T07:33:06.427Z,33.03
2023-07-17T07:38:09.933Z,33.33
2023-07-17T07:43:13.380Z,33.41
2023-07-17T07:48:16.984Z,33.73
2023-07-17T07:53:20.279Z,33.98
2023-07-17T07:58:23.196Z,34.27
2023-07-17T08:03:26.543Z,34.40
2023-07-17T08:08:29.534Z,34.57
2023-07-17T08:13:32.849Z,34.62
2023-07-17T08:18:35.582Z,34.84
2023-07-17T08:23:38.913Z,35.20
2023-07-17T08:28:41.730Z,35.32
2023-07-17T08:33:44.679Z,35.29
2023-07-17T08:38:47.821Z,35.29
2023-07-17T08:43:51.745Z,35.36
2023-07-17T08:48:56.120Z,35.80
2023-07-17T08:54:13.533Z,36.13
2023-07-17T08:59:23.944Z,36.45
2023-07-17T09:04:30.451Z,36.62
2023-07-17T09:09:33.309Z,36.28
2023-07-17T09:14:37.218Z,35.59
2023-07-17T09:19:40.506Z,34.96
2023-07-17T09:24:43.936Z,34.47
2023-07-17T09:29:47.053Z,34.22
2023-07-17T09:35:03.687Z,33.99
2023-07-17T09:40:13.262Z,33.63
2023-07-17T09:45:16.557Z,33.35
2023-07-17T09:50:21.299Z,33.17
2023-07-17T09:55:33.330Z,33.17
2023-07-17T10:00:42.071Z,33.06
2023-07-17T10:05:46.539Z,33.05
2023-07-17T10:10:53.108Z,33.22
2023-07-17T10:16:02.399Z,33.26
2023-07-17T10:21:57.265Z,33.32
2023-07-17T10:27:02.722Z,33.13
2023-07-17T10:32:12.024Z,32.84
2023-07-17T10:37:33.629Z,32.89
2023-07-17T10:42:37.007Z,32.97
2023-07-17T10:47:42.800Z,33.01
2023-07-17T10:52:45.836Z,33.07
2023-07-17T10:57:49.751Z,33.31
2023-07-17T11:03:00.087Z,33.33
2023-07-17T11:08:08.131Z,32.91
2023-07-17T11:13:13.849Z,32.70
2023-07-17T11:18:26.904Z,32.44
2023-07-17T11:23:29.864Z,32.08
2023-07-17T11:28:35.694Z,31.94
2023-07-17T11:33:38.601Z,31.57
2023-07-17T11:38:46.182Z,31.48
2023-07-17T11:43:58.451Z,31.49
2023-07-17T11:49:01.454Z,31.65
2023-07-17T11:54:04.969Z,31.73
2023-07-17T11:59:17.870Z,31.60
2023-07-17T12:04:26.646Z,31.30
2023-07-17T12:09:29.349Z,31.15
2023-07-17T12:14:33.062Z,31.09
2023-07-17T12:19:36.532Z,30.92
2023-07-17T12:24:39.549Z,30.98
2023-07-17T12:29:42.732Z,31.10
2023-07-17T12:39:53.667Z,31.18
2023-07-17T12:44:59.965Z,31.14
2023-07-17T12:50:03.151Z,31.25
2023-07-17T12:55:07.138Z,31.44
2023-07-17T13:00:11.403Z,31.57
2023-07-17T13:05:16.067Z,31.80
2023-07-17T13:10:19.389Z,31.95
2023-07-17T13:15:24.220Z,32.34
2023-07-17T13:20:28.483Z,32.68
2023-07-17T13:25:32.686Z,32.77
2023-07-17T13:30:35.987Z,32.73
2023-07-17T13:35:39.001Z,32.87
2023-07-17T13:40:41.742Z,33.28
2023-07-17T13:45:45.461Z,33.51
2023-07-17T13:50:49.573Z,33.58
2023-07-17T13:55:52.510Z,33.36
2023-07-17T14:00:55.820Z,33.21
2023-07-17T14:05:58.721Z,32.83
2023-07-17T14:11:03.302Z,32.56
2023-07-17T14:16:10.078Z,32.50
2023-07-17T14:21:13.006Z,32.47
2023-07-17T14:26:16.444Z,32.44
2023-07-17T14:31:19.455Z,32.13
2023-07-17T14:36:22.585Z,31.97
2023-07-17T14:41:25.684Z,31.78
2023-07-17T14:46:30.325Z,31.61
2023-07-17T14:51:35.467Z,31.42
2023-07-17T14:56:38.126Z,31.18
2023-07-17T15:01:41.949Z,30.93
2023-07-17T15:06:44.848Z,30.65
2023-07-17T15:11:49.704Z,30.56
2023-07-17T15:16:52.648Z,30.37
2023-07-17T15:21:56.272Z,30.23
2023-07-17T15:26:58.822Z,30.24
2023-07-17T15:32:02.157Z,30.11
2023-07-17T15:37:05.492Z,29.93
2023-07-17T15:42:08.648Z,29.83
2023-07-17T15:47:11.733Z,29.78
2023-07-17T15:52:15.004Z,29.57
2023-07-17T15:57:17.710Z,29.26
2023-07-17T16:02:21.263Z,28.97
2023-07-17T16:07:24.449Z,28.70
2023-07-17T16:12:28.517Z,28.67
2023-07-17T16:18:06.848Z,28.52
2023-07-17T16:29:09.937Z,28.29
2023-07-17T16:34:13.997Z,28.23
2023-07-17T16:39:19.292Z,28.12
2023-07-17T16:44:22.235Z,28.01
2023-07-17T16:49:27.146Z,27.80
2023-07-17T16:55:17.088Z,27.80
2023-07-17T17:00:23.452Z,27.77
2023-07-17T17:05:26.347Z,27.71
2023-07-17T17:10:29.502Z,27.66
2023-07-17T17:15:33.078Z,27.60
2023-07-17T17:20:36.645Z,27.50
2023-07-17T17:25:43.345Z,27.32
2023-07-17T17:30:49.758Z,27.24
2023-07-17T17:35:52.553Z,27.06
2023-07-17T17:40:57.810Z,26.99
2023-07-17T17:46:03.150Z,26.88
2023-07-17T17:51:06.090Z,26.69
2023-07-17T17:56:09.150Z,26.64
2023-07-17T18:01:14.597Z,26.47
2023-07-17T18:06:17.330Z,26.33
2023-07-17T18:11:21.156Z,26.18
2023-07-17T18:16:25.904Z,26.07
2023-07-17T18:21:31.536Z,26.00
2023-07-17T18:26:36.747Z,25.87
2023-07-17T18:31:39.755Z,25.80
2023-07-17T18:36:42.886Z,25.73
2023-07-17T18:41:46.074Z,25.66
2023-07-17T18:46:50.040Z,25.56
2023-07-17T18:51:53.585Z,25.54
2023-07-17T18:56:56.289Z,25.53
2023-07-17T19:01:59.156Z,25.44
2023-07-17T19:07:02.702Z,25.38
2023-07-17T19:12:07.832Z,25.36
2023-07-17T19:17:11.661Z,25.25
2023-07-17T19:22:14.441Z,25.22
2023-07-17T19:27:17.498Z,25.18
2023-07-17T19:32:25.882Z,25.05
2023-07-17T19:37:28.723Z,25.05
2023-07-17T19:42:32.492Z,24.90
2023-07-17T19:47:35.319Z,24.85
2023-07-17T19:52:38.719Z,24.81
2023-07-17T19:57:41.806Z,24.67
2023-07-17T20:03:09.939Z,24.62
2023-07-17T20:08:12.684Z,24.62
2023-07-17T20:13:16.661Z,24.54
2023-07-17T20:18:19.601Z,24.46
2023-07-17T20:23:22.562Z,24.39
2023-07-17T20:28:25.370Z,24.41
2023-07-17T20:33:29.178Z,24.35
2023-07-17T20:38:32.172Z,24.33
2023-07-17T20:43:34.734Z,24.18
2023-07-17T20:48:37.975Z,24.11
2023-07-17T20:53:42.411Z,24.01
2023-07-17T20:58:45.843Z,23.94
2023-07-17T21:03:53.075Z,23.95
2023-07-17T21:08:57.054Z,23.95
2023-07-17T21:14:00.784Z,23.89
2023-07-17T21:19:03.445Z,23.88
2023-07-17T21:24:06.583Z,23.87
2023-07-17T21:29:09.996Z,23.85
2023-07-17T21:34:12.813Z,23.81
2023-07-17T21:39:16.025Z,23.73
2023-07-17T21:44:19.676Z,23.60
2023-07-17T21:49:22.322Z,23.49
2023-07-17T21:54:25.938Z,23.47
2023-07-17T21:59:29.457Z,23.46
2023-07-17T22:04:33.810Z,23.40
2023-07-17T22:09:37.185Z,23.32
2023-07-17T22:14:40.067Z,23.28
2023-07-17T22:19:43.296Z,23.23
2023-07-17T22:24:45.799Z,23.26
2023-07-17T22:29:49.134Z,23.29
2023-07-17T22:34:53.662Z,23.38
2023-07-17T22:39:56.203Z,23.37
2023-07-17T22:44:58.700Z,23.26
2023-07-17T22:50:01.360Z,23.29
2023-07-17T22:55:07.618Z,23.23
2023-07-17T23:00:12.734Z,23.18
2023-07-17T23:05:15.992Z,23.13
2023-07-17T23:10:18.707Z,23.11
2023-07-17T23:15:21.392Z,23.08
2023-07-17T23:20:24.000Z,23.00
2023-07-17T23:25:26.658Z,22.99
2023-07-17T23:30:30.092Z,22.99
2023-07-17T23:35:33.074Z,22.99
2023-07-17T23:40:35.705Z,22.95
2023-07-17T23:45:38.371Z,22.88
2023-07-17T23:50:40.873Z,22.86
2023-07-17T23:55:44.171Z,22.75
